sensor_id;sensor_type;location;lat;lon;timestamp;P1;durP1;ratioP1;P2;durP2;ratioP2
46122;SDS011;31856;-35.404;149.120;2022-09-13T00:56:40;1.80;;;0.60;;
46122;SDS011;31856;-35.404;149.120;2022-09-13T00:59:12;0.85;;;0.65;;
46122;SDS011;31856;-35.404;149.120;2022-09-13T01:01:46;0.77;;;0.60;;
46122;SDS011;31856;-35.404;149.120;2022-09-13T01:04:17;0.52;;;0.50;;
46122;SDS011;31856;-35.404;149.120;2022-09-13T01:06:49;1.15;;;0.57;;
46122;SDS011;31856;-35.404;149.120;2022-09-13T01:09:20;0.65;;;0.55;;
46122;SDS011;31856;-35.404;149.120;2022-09-13T01:11:51;1.83;;;0.90;;
46122;SDS011;31856;-35.404;149.120;2022-09-13T01:14:28;0.90;;;0.60;;
46122;SDS011;31856;-35.404;149.120;2022-09-13T01:16:58;1.73;;;0.60;;
46122;SDS011;31856;-35.404;149.120;2022-09-13T01:19:28;1.08;;;0.50;;
46122;SDS011;31856;-35.404;149.120;2022-09-13T01:24:58;1.17;;;0.50;;
46122;SDS011;31856;-35.404;149.120;2022-09-13T01:30:18;0.90;;;0.55;;
46122;SDS011;31856;-35.404;149.120;2022-09-13T01:35:38;1.08;;;0.50;;
46122;SDS011;31856;-35.404;149.120;2022-09-13T01:46:05;0.60;;;0.40;;
46122;SDS011;31856;-35.404;149.120;2022-09-13T01:53:51;0.73;;;0.60;;
46122;SDS011;31856;-35.404;149.120;2022-09-13T01:56:27;1.80;;;0.60;;
46122;SDS011;31856;-35.404;149.120;2022-09-13T01:59:03;1.00;;;0.52;;
46122;SDS011;31856;-35.404;149.120;2022-09-13T02:01:37;2.47;;;0.70;;
46122;SDS011;31856;-35.404;149.120;2022-09-13T02:04:09;0.65;;;0.57;;
46122;SDS011;31856;-35.404;149.120;2022-09-13T02:06:45;0.95;;;0.70;;
46122;SDS011;31856;-35.404;149.120;2022-09-13T02:09:18;0.70;;;0.50;;
46122;SDS011;31856;-35.404;149.120;2022-09-13T02:11:56;0.65;;;0.50;;
46122;SDS011;31856;-35.404;149.120;2022-09-13T02:14:36;1.30;;;0.73;;
46122;SDS011;31856;-35.404;149.120;2022-09-13T02:17:14;0.82;;;0.50;;
46122;SDS011;31856;-35.404;149.120;2022-09-13T02:19:54;1.25;;;0.50;;
46122;SDS011;31856;-35.404;149.120;2022-09-13T02:22:29;2.08;;;0.50;;
46122;SDS011;31856;-35.404;149.120;2022-09-13T02:25:09;0.65;;;0.60;;
46122;SDS011;31856;-35.404;149.120;2022-09-13T02:27:44;0.80;;;0.52;;
46122;SDS011;31856;-35.404;149.120;2022-09-13T02:30:15;0.90;;;0.52;;
46122;SDS011;31856;-35.404;149.120;2022-09-13T02:32:58;1.20;;;0.60;;
46122;SDS011;31856;-35.404;149.120;2022-09-13T02:35:31;0.95;;;0.65;;
46122;SDS011;31856;-35.404;149.120;2022-09-13T02:38:10;0.90;;;0.60;;
46122;SDS011;31856;-35.404;149.120;2022-09-13T02:40:42;1.15;;;0.60;;
46122;SDS011;31856;-35.404;149.120;2022-09-13T02:43:19;1.08;;;0.70;;
46122;SDS011;31856;-35.404;149.120;2022-09-13T02:45:57;0.80;;;0.70;;
46122;SDS011;31856;-35.404;149.120;2022-09-13T02:59:16;1.10;;;0.60;;
46122;SDS011;31856;-35.404;149.120;2022-09-13T03:02:10;1.35;;;0.70;;
46122;SDS011;31856;-35.404;149.120;2022-09-13T04:38:07;0.90;;;0.60;;
46122;SDS011;31856;-35.404;149.120;2022-09-13T04:40:37;0.77;;;0.60;;
46122;SDS011;31856;-35.404;149.120;2022-09-13T04:43:08;0.88;;;0.55;;
46122;SDS011;31856;-35.404;149.120;2022-09-13T04:45:39;0.82;;;0.50;;
46122;SDS011;31856;-35.404;149.120;2022-09-13T04:48:09;0.70;;;0.50;;
46122;SDS011;31856;-35.404;149.120;2022-09-13T04:50:39;1.63;;;0.52;;
46122;SDS011;31856;-35.404;149.120;2022-09-13T04:53:09;0.65;;;0.52;;
46122;SDS011;31856;-35.404;149.120;2022-09-13T04:55:39;1.10;;;0.50;;
46122;SDS011;31856;-35.404;149.120;2022-09-13T04:58:09;1.15;;;0.50;;
46122;SDS011;31856;-35.404;149.120;2022-09-13T05:00:39;1.80;;;0.60;;
46122;SDS011;31856;-35.404;149.120;2022-09-13T05:03:09;2.08;;;0.50;;
46122;SDS011;31856;-35.404;149.120;2022-09-13T05:05:39;1.02;;;0.60;;
46122;SDS011;31856;-35.404;149.120;2022-09-13T05:08:09;0.80;;;0.60;;
46122;SDS011;31856;-35.404;149.120;2022-09-13T05:10:40;0.90;;;0.50;;
46122;SDS011;31856;-35.404;149.120;2022-09-13T05:13:10;2.65;;;0.60;;
46122;SDS011;31856;-35.404;149.120;2022-09-13T05:15:40;2.13;;;0.70;;
46122;SDS011;31856;-35.404;149.120;2022-09-13T05:18:10;2.00;;;0.70;;
46122;SDS011;31856;-35.404;149.120;2022-09-13T05:20:40;0.82;;;0.55;;
46122;SDS011;31856;-35.404;149.120;2022-09-13T05:23:10;1.10;;;0.50;;
46122;SDS011;31856;-35.404;149.120;2022-09-13T05:25:40;0.93;;;0.60;;
46122;SDS011;31856;-35.404;149.120;2022-09-13T05:28:10;1.38;;;0.60;;
46122;SDS011;31856;-35.404;149.120;2022-09-13T05:30:40;1.42;;;0.70;;
46122;SDS011;31856;-35.404;149.120;2022-09-13T05:33:11;2.25;;;0.60;;
46122;SDS011;31856;-35.404;149.120;2022-09-13T05:35:42;1.45;;;0.70;;
46122;SDS011;31856;-35.404;149.120;2022-09-13T05:38:13;0.45;;;0.40;;
46122;SDS011;31856;-35.404;149.120;2022-09-13T05:40:44;0.70;;;0.40;;
46122;SDS011;31856;-35.404;149.120;2022-09-13T05:43:14;0.98;;;0.40;;
46122;SDS011;31856;-35.404;149.120;2022-09-13T05:45:45;1.50;;;0.60;;
46122;SDS011;31856;-35.404;149.120;2022-09-13T05:48:16;1.20;;;0.57;;
46122;SDS011;31856;-35.404;149.120;2022-09-13T05:50:46;0.88;;;0.60;;
46122;SDS011;31856;-35.404;149.120;2022-09-13T05:53:24;0.82;;;0.50;;
46122;SDS011;31856;-35.404;149.120;2022-09-13T05:55:54;0.80;;;0.60;;
46122;SDS011;31856;-35.404;149.120;2022-09-13T05:58:25;0.70;;;0.50;;
46122;SDS011;31856;-35.404;149.120;2022-09-13T06:00:56;0.75;;;0.60;;
46122;SDS011;31856;-35.404;149.120;2022-09-13T06:03:27;0.50;;;0.47;;
46122;SDS011;31856;-35.404;149.120;2022-09-13T06:05:58;2.00;;;0.52;;
46122;SDS011;31856;-35.404;149.120;2022-09-13T06:08:30;1.05;;;0.70;;
46122;SDS011;31856;-35.404;149.120;2022-09-13T06:11:05;1.38;;;0.60;;
46122;SDS011;31856;-35.404;149.120;2022-09-13T06:13:36;0.90;;;0.60;;
46122;SDS011;31856;-35.404;149.120;2022-09-13T06:16:06;0.70;;;0.50;;
46122;SDS011;31856;-35.404;149.120;2022-09-13T06:18:37;0.75;;;0.57;;
46122;SDS011;31856;-35.404;149.120;2022-09-13T06:21:11;1.08;;;0.50;;
46122;SDS011;31856;-35.404;149.120;2022-09-13T06:23:48;1.15;;;0.45;;
46122;SDS011;31856;-35.404;149.120;2022-09-13T06:26:20;1.60;;;0.60;;
46122;SDS011;31856;-35.404;149.120;2022-09-13T06:28:53;1.38;;;0.60;;
46122;SDS011;31856;-35.404;149.120;2022-09-13T06:31:24;1.63;;;0.60;;
46122;SDS011;31856;-35.404;149.120;2022-09-13T06:33:57;1.00;;;0.60;;
46122;SDS011;31856;-35.404;149.120;2022-09-13T06:36:28;1.60;;;0.85;;
46122;SDS011;31856;-35.404;149.120;2022-09-13T06:38:59;1.13;;;0.60;;
46122;SDS011;31856;-35.404;149.120;2022-09-13T06:41:29;0.93;;;0.55;;
46122;SDS011;31856;-35.404;149.120;2022-09-13T06:43:59;0.88;;;0.60;;
46122;SDS011;31856;-35.404;149.120;2022-09-13T06:46:31;0.70;;;0.50;;
46122;SDS011;31856;-35.404;149.120;2022-09-13T06:49:02;0.85;;;0.55;;
46122;SDS011;31856;-35.404;149.120;2022-09-13T06:51:33;1.48;;;0.60;;
46122;SDS011;31856;-35.404;149.120;2022-09-13T06:54:03;0.95;;;0.50;;
46122;SDS011;31856;-35.404;149.120;2022-09-13T06:56:34;0.77;;;0.60;;
46122;SDS011;31856;-35.404;149.120;2022-09-13T06:59:05;0.85;;;0.60;;
46122;SDS011;31856;-35.404;149.120;2022-09-13T13:22:50;8.05;;;2.83;;
46122;SDS011;31856;-35.404;149.120;2022-09-13T13:25:36;8.13;;;4.38;;
46122;SDS011;31856;-35.404;149.120;2022-09-13T13:30:55;18.30;;;7.68;;
46122;SDS011;31856;-35.404;149.120;2022-09-13T13:33:27;7.93;;;3.22;;
46122;SDS011;31856;-35.404;149.120;2022-09-13T13:36:14;5.32;;;2.40;;
46122;SDS011;31856;-35.404;149.120;2022-09-13T13:38:49;6.38;;;3.67;;
46122;SDS011;31856;-35.404;149.120;2022-09-13T13:41:35;6.88;;;2.60;;
46122;SDS011;31856;-35.404;149.120;2022-09-13T13:46:51;2.60;;;1.20;;
46122;SDS011;31856;-35.404;149.120;2022-09-13T14:00:04;3.28;;;1.30;;
46122;SDS011;31856;-35.404;149.120;2022-09-13T14:05:16;5.57;;;1.38;;
46122;SDS011;31856;-35.404;149.120;2022-09-13T14:10:46;6.65;;;1.70;;
46122;SDS011;31856;-35.404;149.120;2022-09-13T14:16:16;3.72;;;1.73;;
46122;SDS011;31856;-35.404;149.120;2022-09-13T14:21:43;4.30;;;1.10;;
46122;SDS011;31856;-35.404;149.120;2022-09-13T14:24:19;3.63;;;1.30;;
46122;SDS011;31856;-35.404;149.120;2022-09-13T14:26:52;8.65;;;1.60;;
46122;SDS011;31856;-35.404;149.120;2022-09-13T14:29:23;2.88;;;0.95;;
46122;SDS011;31856;-35.404;149.120;2022-09-13T14:31:54;2.75;;;1.20;;
46122;SDS011;31856;-35.404;149.120;2022-09-13T14:37:00;1.95;;;1.00;;
46122;SDS011;31856;-35.404;149.120;2022-09-13T14:39:30;3.40;;;1.50;;
46122;SDS011;31856;-35.404;149.120;2022-09-13T14:42:21;3.80;;;1.40;;
46122;SDS011;31856;-35.404;149.120;2022-09-13T14:44:50;4.80;;;1.20;;
46122;SDS011;31856;-35.404;149.120;2022-09-13T14:47:26;2.83;;;1.27;;
46122;SDS011;31856;-35.404;149.120;2022-09-13T14:52:59;4.63;;;1.40;;
46122;SDS011;31856;-35.404;149.120;2022-09-13T14:55:40;5.18;;;0.98;;
46122;SDS011;31856;-35.404;149.120;2022-09-13T14:58:16;2.03;;;0.93;;
46122;SDS011;31856;-35.404;149.120;2022-09-13T15:00:48;4.10;;;1.30;;
46122;SDS011;31856;-35.404;149.120;2022-09-13T15:03:19;3.90;;;2.08;;
46122;SDS011;31856;-35.404;149.120;2022-09-13T15:05:52;4.18;;;2.00;;
46122;SDS011;31856;-35.404;149.120;2022-09-13T15:08:26;6.15;;;2.22;;
46122;SDS011;31856;-35.404;149.120;2022-09-13T15:10:57;2.50;;;1.38;;
46122;SDS011;31856;-35.404;149.120;2022-09-13T15:13:27;3.53;;;1.42;;
46122;SDS011;31856;-35.404;149.120;2022-09-13T15:15:57;3.55;;;1.60;;
46122;SDS011;31856;-35.404;149.120;2022-09-13T15:18:31;5.43;;;1.83;;
46122;SDS011;31856;-35.404;149.120;2022-09-13T15:23:34;3.05;;;2.10;;
46122;SDS011;31856;-35.404;149.120;2022-09-13T15:26:19;4.15;;;2.20;;
46122;SDS011;31856;-35.404;149.120;2022-09-13T15:28:51;5.72;;;2.08;;
46122;SDS011;31856;-35.404;149.120;2022-09-13T15:31:23;6.50;;;1.85;;
46122;SDS011;31856;-35.404;149.120;2022-09-13T15:36:42;2.97;;;1.45;;
46122;SDS011;31856;-35.404;149.120;2022-09-13T15:39:19;3.35;;;1.33;;
46122;SDS011;31856;-35.404;149.120;2022-09-13T15:41:53;4.55;;;1.00;;
46122;SDS011;31856;-35.404;149.120;2022-09-13T15:44:24;5.68;;;1.55;;
46122;SDS011;31856;-35.404;149.120;2022-09-13T15:46:56;3.05;;;1.58;;
46122;SDS011;31856;-35.404;149.120;2022-09-13T15:49:30;4.07;;;1.15;;
46122;SDS011;31856;-35.404;149.120;2022-09-13T15:52:01;5.82;;;1.23;;
46122;SDS011;31856;-35.404;149.120;2022-09-13T15:54:35;2.67;;;1.20;;
46122;SDS011;31856;-35.404;149.120;2022-09-13T15:57:06;2.80;;;1.10;;
46122;SDS011;31856;-35.404;149.120;2022-09-13T15:59:37;5.47;;;1.15;;
46122;SDS011;31856;-35.404;149.120;2022-09-13T16:05:06;4.97;;;1.35;;
46122;SDS011;31856;-35.404;149.120;2022-09-13T16:07:36;2.70;;;1.17;;
46122;SDS011;31856;-35.404;149.120;2022-09-13T16:10:20;1.83;;;1.08;;
46122;SDS011;31856;-35.404;149.120;2022-09-13T16:12:51;2.10;;;0.90;;
46122;SDS011;31856;-35.404;149.120;2022-09-13T16:15:22;2.35;;;0.80;;
46122;SDS011;31856;-35.404;149.120;2022-09-13T16:17:51;2.50;;;1.20;;
46122;SDS011;31856;-35.404;149.120;2022-09-13T16:20:22;3.83;;;1.10;;
46122;SDS011;31856;-35.404;149.120;2022-09-13T16:22:53;2.90;;;1.13;;
46122;SDS011;31856;-35.404;149.120;2022-09-13T16:25:23;2.10;;;1.00;;
46122;SDS011;31856;-35.404;149.120;2022-09-13T16:27:54;3.15;;;0.90;;
46122;SDS011;31856;-35.404;149.120;2022-09-13T16:30:26;1.50;;;0.85;;
46122;SDS011;31856;-35.404;149.120;2022-09-13T16:32:58;4.18;;;1.58;;
46122;SDS011;31856;-35.404;149.120;2022-09-13T16:35:29;2.60;;;0.70;;
46122;SDS011;31856;-35.404;149.120;2022-09-13T16:37:59;4.15;;;0.80;;
46122;SDS011;31856;-35.404;149.120;2022-09-13T16:40:29;3.15;;;0.80;;
46122;SDS011;31856;-35.404;149.120;2022-09-13T16:42:59;1.75;;;0.90;;
46122;SDS011;31856;-35.404;149.120;2022-09-13T16:45:30;1.85;;;0.65;;
46122;SDS011;31856;-35.404;149.120;2022-09-13T16:48:00;2.00;;;1.08;;
46122;SDS011;31856;-35.404;149.120;2022-09-13T16:50:31;2.35;;;0.80;;
46122;SDS011;31856;-35.404;149.120;2022-09-13T16:53:02;1.38;;;0.60;;
46122;SDS011;31856;-35.404;149.120;2022-09-13T16:55:32;1.67;;;0.70;;
46122;SDS011;31856;-35.404;149.120;2022-09-13T16:58:02;3.42;;;0.70;;
46122;SDS011;31856;-35.404;149.120;2022-09-13T17:00:32;2.05;;;0.70;;
46122;SDS011;31856;-35.404;149.120;2022-09-13T17:03:02;2.08;;;0.60;;
46122;SDS011;31856;-35.404;149.120;2022-09-13T17:05:32;4.55;;;0.85;;
46122;SDS011;31856;-35.404;149.120;2022-09-13T17:08:02;3.67;;;0.80;;
46122;SDS011;31856;-35.404;149.120;2022-09-13T17:10:32;3.90;;;0.55;;
46122;SDS011;31856;-35.404;149.120;2022-09-13T17:13:02;2.22;;;0.60;;
46122;SDS011;31856;-35.404;149.120;2022-09-13T17:15:36;2.60;;;0.60;;
46122;SDS011;31856;-35.404;149.120;2022-09-13T17:18:06;1.83;;;0.75;;
46122;SDS011;31856;-35.404;149.120;2022-09-13T17:20:41;0.90;;;0.60;;
46122;SDS011;31856;-35.404;149.120;2022-09-13T17:23:12;0.90;;;0.60;;
46122;SDS011;31856;-35.404;149.120;2022-09-13T17:25:43;4.65;;;0.75;;
46122;SDS011;31856;-35.404;149.120;2022-09-13T17:28:14;2.25;;;0.65;;
46122;SDS011;31856;-35.404;149.120;2022-09-13T17:30:45;1.42;;;0.70;;
46122;SDS011;31856;-35.404;149.120;2022-09-13T17:33:15;1.63;;;0.70;;
46122;SDS011;31856;-35.404;149.120;2022-09-13T17:35:45;2.13;;;0.80;;
46122;SDS011;31856;-35.404;149.120;2022-09-13T17:38:15;3.47;;;0.77;;
46122;SDS011;31856;-35.404;149.120;2022-09-13T17:40:45;2.17;;;0.65;;
46122;SDS011;31856;-35.404;149.120;2022-09-13T17:43:16;1.52;;;0.80;;
46122;SDS011;31856;-35.404;149.120;2022-09-13T17:45:47;2.50;;;1.15;;
46122;SDS011;31856;-35.404;149.120;2022-09-13T17:48:17;6.68;;;1.00;;
46122;SDS011;31856;-35.404;149.120;2022-09-13T17:50:47;2.83;;;1.05;;
46122;SDS011;31856;-35.404;149.120;2022-09-13T17:53:17;1.67;;;0.70;;
46122;SDS011;31856;-35.404;149.120;2022-09-13T17:55:48;2.97;;;0.80;;
46122;SDS011;31856;-35.404;149.120;2022-09-13T17:58:18;1.75;;;0.90;;
46122;SDS011;31856;-35.404;149.120;2022-09-13T18:00:48;3.72;;;0.95;;
46122;SDS011;31856;-35.404;149.120;2022-09-13T18:03:18;3.05;;;0.90;;
46122;SDS011;31856;-35.404;149.120;2022-09-13T18:05:53;3.22;;;1.10;;
46122;SDS011;31856;-35.404;149.120;2022-09-13T18:08:24;2.20;;;1.10;;
46122;SDS011;31856;-35.404;149.120;2022-09-13T18:10:54;3.08;;;1.40;;
46122;SDS011;31856;-35.404;149.120;2022-09-13T18:13:39;1.52;;;0.80;;
46122;SDS011;31856;-35.404;149.120;2022-09-13T18:16:13;1.42;;;0.80;;
46122;SDS011;31856;-35.404;149.120;2022-09-13T18:18:48;2.10;;;1.20;;
46122;SDS011;31856;-35.404;149.120;2022-09-13T18:21:19;2.97;;;0.77;;
46122;SDS011;31856;-35.404;149.120;2022-09-13T18:23:50;2.67;;;1.00;;
46122;SDS011;31856;-35.404;149.120;2022-09-13T18:26:22;3.75;;;1.27;;
46122;SDS011;31856;-35.404;149.120;2022-09-13T18:28:56;2.78;;;0.93;;
46122;SDS011;31856;-35.404;149.120;2022-09-13T18:31:29;1.80;;;1.00;;
46122;SDS011;31856;-35.404;149.120;2022-09-13T18:34:04;3.08;;;0.90;;
46122;SDS011;31856;-35.404;149.120;2022-09-13T18:36:34;2.15;;;1.08;;
46122;SDS011;31856;-35.404;149.120;2022-09-13T18:39:05;4.45;;;0.90;;
46122;SDS011;31856;-35.404;149.120;2022-09-13T18:41:35;3.53;;;1.15;;
46122;SDS011;31856;-35.404;149.120;2022-09-13T18:44:08;1.60;;;1.00;;
46122;SDS011;31856;-35.404;149.120;2022-09-13T18:46:39;2.83;;;1.10;;
46122;SDS011;31856;-35.404;149.120;2022-09-13T18:49:09;2.08;;;0.90;;
46122;SDS011;31856;-35.404;149.120;2022-09-13T18:51:40;2.17;;;1.08;;
46122;SDS011;31856;-35.404;149.120;2022-09-13T18:54:11;3.05;;;1.00;;
46122;SDS011;31856;-35.404;149.120;2022-09-13T18:56:45;2.20;;;1.42;;
46122;SDS011;31856;-35.404;149.120;2022-09-13T18:59:16;3.30;;;1.05;;
46122;SDS011;31856;-35.404;149.120;2022-09-13T19:01:45;2.30;;;1.05;;
46122;SDS011;31856;-35.404;149.120;2022-09-13T19:04:18;2.88;;;1.00;;
46122;SDS011;31856;-35.404;149.120;2022-09-13T19:06:51;2.40;;;1.20;;
46122;SDS011;31856;-35.404;149.120;2022-09-13T19:09:23;3.47;;;1.70;;
46122;SDS011;31856;-35.404;149.120;2022-09-13T19:11:53;3.83;;;1.50;;
46122;SDS011;31856;-35.404;149.120;2022-09-13T19:14:24;3.53;;;1.45;;
46122;SDS011;31856;-35.404;149.120;2022-09-13T19:16:55;5.25;;;1.40;;
46122;SDS011;31856;-35.404;149.120;2022-09-13T19:19:28;3.55;;;1.35;;
46122;SDS011;31856;-35.404;149.120;2022-09-13T19:21:59;3.33;;;1.50;;
46122;SDS011;31856;-35.404;149.120;2022-09-13T19:24:29;4.72;;;1.40;;
46122;SDS011;31856;-35.404;149.120;2022-09-13T19:26:59;3.38;;;1.67;;
46122;SDS011;31856;-35.404;149.120;2022-09-13T19:29:29;2.17;;;1.40;;
46122;SDS011;31856;-35.404;149.120;2022-09-13T19:31:59;3.70;;;1.63;;
46122;SDS011;31856;-35.404;149.120;2022-09-13T19:34:29;3.58;;;1.67;;
46122;SDS011;31856;-35.404;149.120;2022-09-13T19:36:59;4.13;;;1.52;;
46122;SDS011;31856;-35.404;149.120;2022-09-13T19:39:29;3.17;;;1.90;;
46122;SDS011;31856;-35.404;149.120;2022-09-13T19:41:59;3.00;;;1.45;;
46122;SDS011;31856;-35.404;149.120;2022-09-13T19:44:29;2.40;;;1.50;;
46122;SDS011;31856;-35.404;149.120;2022-09-13T19:46:59;3.42;;;1.27;;
46122;SDS011;31856;-35.404;149.120;2022-09-13T19:49:51;2.63;;;1.50;;
46122;SDS011;31856;-35.404;149.120;2022-09-13T19:52:21;3.13;;;1.35;;
46122;SDS011;31856;-35.404;149.120;2022-09-13T19:54:51;1.92;;;1.35;;
46122;SDS011;31856;-35.404;149.120;2022-09-13T19:57:23;2.42;;;1.38;;
46122;SDS011;31856;-35.404;149.120;2022-09-13T19:59:53;5.68;;;1.50;;
46122;SDS011;31856;-35.404;149.120;2022-09-13T20:02:23;2.40;;;1.30;;
46122;SDS011;31856;-35.404;149.120;2022-09-13T20:04:53;5.03;;;1.25;;
46122;SDS011;31856;-35.404;149.120;2022-09-13T20:07:23;2.47;;;1.30;;
46122;SDS011;31856;-35.404;149.120;2022-09-13T20:09:53;2.63;;;1.30;;
46122;SDS011;31856;-35.404;149.120;2022-09-13T20:12:24;2.00;;;1.23;;
46122;SDS011;31856;-35.404;149.120;2022-09-13T20:14:54;2.88;;;1.58;;
46122;SDS011;31856;-35.404;149.120;2022-09-13T20:17:24;3.50;;;1.63;;
46122;SDS011;31856;-35.404;149.120;2022-09-13T20:19:55;3.05;;;1.80;;
46122;SDS011;31856;-35.404;149.120;2022-09-13T20:22:24;2.70;;;1.67;;
46122;SDS011;31856;-35.404;149.120;2022-09-13T20:24:54;3.05;;;1.65;;
46122;SDS011;31856;-35.404;149.120;2022-09-13T20:27:26;2.83;;;1.42;;
46122;SDS011;31856;-35.404;149.120;2022-09-13T20:29:58;2.70;;;1.17;;
46122;SDS011;31856;-35.404;149.120;2022-09-13T20:32:28;3.75;;;1.50;;
46122;SDS011;31856;-35.404;149.120;2022-09-13T20:34:59;2.03;;;1.10;;
46122;SDS011;31856;-35.404;149.120;2022-09-13T20:37:29;3.03;;;1.10;;
46122;SDS011;31856;-35.404;149.120;2022-09-13T20:40:00;4.10;;;1.58;;
46122;SDS011;31856;-35.404;149.120;2022-09-13T20:42:30;2.92;;;1.63;;
46122;SDS011;31856;-35.404;149.120;2022-09-13T20:45:00;2.40;;;1.35;;
46122;SDS011;31856;-35.404;149.120;2022-09-13T20:47:30;12.75;;;2.45;;
46122;SDS011;31856;-35.404;149.120;2022-09-13T20:50:01;2.83;;;1.30;;
46122;SDS011;31856;-35.404;149.120;2022-09-13T20:52:31;2.80;;;1.10;;
46122;SDS011;31856;-35.404;149.120;2022-09-13T20:55:01;2.55;;;1.50;;
46122;SDS011;31856;-35.404;149.120;2022-09-13T20:57:31;4.00;;;2.17;;
46122;SDS011;31856;-35.404;149.120;2022-09-13T21:00:01;2.25;;;1.17;;
46122;SDS011;31856;-35.404;149.120;2022-09-13T22:50:55;3.42;;;1.10;;
46122;SDS011;31856;-35.404;149.120;2022-09-13T22:53:26;2.50;;;1.48;;
46122;SDS011;31856;-35.404;149.120;2022-09-13T22:56:00;2.25;;;0.80;;
46122;SDS011;31856;-35.404;149.120;2022-09-13T23:01:02;2.22;;;0.80;;
46122;SDS011;31856;-35.404;149.120;2022-09-13T23:03:33;2.80;;;1.15;;
46122;SDS011;31856;-35.404;149.120;2022-09-13T23:06:04;2.25;;;0.70;;
46122;SDS011;31856;-35.404;149.120;2022-09-13T23:08:36;3.17;;;1.02;;
46122;SDS011;31856;-35.404;149.120;2022-09-13T23:13:40;2.83;;;0.90;;
46122;SDS011;31856;-35.404;149.120;2022-09-13T23:16:15;2.20;;;0.98;;
46122;SDS011;31856;-35.404;149.120;2022-09-13T23:21:16;1.45;;;0.63;;
46122;SDS011;31856;-35.404;149.120;2022-09-13T23:23:46;2.08;;;0.75;;
46122;SDS011;31856;-35.404;149.120;2022-09-13T23:26:17;1.40;;;0.60;;
46122;SDS011;31856;-35.404;149.120;2022-09-13T23:28:52;1.90;;;0.70;;
46122;SDS011;31856;-35.404;149.120;2022-09-13T23:31:24;1.25;;;0.57;;
46122;SDS011;31856;-35.404;149.120;2022-09-13T23:33:56;1.50;;;0.90;;
46122;SDS011;31856;-35.404;149.120;2022-09-13T23:36:29;4.32;;;0.70;;
46122;SDS011;31856;-35.404;149.120;2022-09-13T23:39:00;1.67;;;0.70;;
46122;SDS011;31856;-35.404;149.120;2022-09-13T23:41:30;3.22;;;0.68;;
46122;SDS011;31856;-35.404;149.120;2022-09-13T23:44:01;3.42;;;1.10;;
46122;SDS011;31856;-35.404;149.120;2022-09-13T23:46:31;1.33;;;0.60;;
46122;SDS011;31856;-35.404;149.120;2022-09-13T23:49:01;1.88;;;0.50;;
46122;SDS011;31856;-35.404;149.120;2022-09-13T23:51:31;1.48;;;0.50;;
46122;SDS011;31856;-35.404;149.120;2022-09-13T23:54:01;0.68;;;0.40;;
46122;SDS011;31856;-35.404;149.120;2022-09-13T23:56:32;0.52;;;0.40;;
46122;SDS011;31856;-35.404;149.120;2022-09-13T23:59:02;4.07;;;0.60;;
